Aviation Digital Data Service (ADDS)

Output produced by METARs form (1826 UTC 16 August 2018)
found at http://www.aviationweather.gov/adds/metars/
 
TAF TQPF 161700Z 1618/1718 11013KT 9999 SCT018 
     PROB40 
     TEMPO 1700/1712 SHRA